Home   Weather   Germany   Moers   Past weeks
Flag for Germany

Past Weather in Moers, North Rhine-Westphalia, Germany — Yesterday and Last 2 Weeks

Currently: 46 °F. Overcast. (Weather station: Duesseldorf, Germany). See more current weather

Past Weather in Moers — Graph

°F

Moers Temperature Yesterday

Maximum temperature yesterday: 64 °F (at 2:20 pm)
Minimum temperature yesterday: 46 °F (at 11:50 pm)
Average temperature yesterday: 54 °F

High & Low Weather Summary for the Past Weeks

 TemperatureHumidityPressure
High64 °F (Mar 3, 2:20 pm)100% (Feb 20, 6:20 am)30.39 "Hg (Feb 20, 6:20 am)
Low28 °F (Feb 28, 1:20 am)43% (Mar 3, 2:20 pm)28.91 "Hg (Feb 22, 6:50 pm)
Average46 °F77%29.77 "Hg
* Reported Feb 18 12:20 pm — Mar 4 12:50 pm, Moers. Weather by CustomWeather, © 2024

Note: Actual official high and low records may vary slightly from our data, if they occured in-between our weather recording intervals... More about our weather records

Moers Weather History for the Previous 24 Hours

Scroll right to see more
 ConditionsComfort  
Time TempWeatherWind HumidityBarometerVisibility
12:50 pm
Mon, Mar 4
46 °FOvercast.7 mph82%29.89 "HgN/A
12:20 pm46 °FOvercast.7 mph82%29.89 "HgN/A
11:50 am46 °FOvercast.8 mph82%29.89 "HgN/A
11:20 am46 °FLow clouds.8 mph82%29.89 "HgN/A
10:50 am46 °FLow clouds.8 mph87%29.86 "HgN/A
10:20 am46 °FLow clouds.6 mph87%29.86 "HgN/A
9:50 am46 °FLow clouds.7 mph87%29.86 "HgN/A
9:20 am46 °FLow clouds.8 mph87%29.86 "HgN/A
8:50 am46 °FPartly sunny.8 mph87%29.86 "HgN/A
8:20 am46 °FPartly sunny.7 mph87%29.83 "HgN/A
7:50 am46 °FLow clouds.8 mph87%29.83 "HgN/A
7:20 am46 °FLow clouds.8 mph87%29.83 "HgN/A
6:50 am46 °FLow clouds.7 mph87%29.83 "HgN/A
6:20 am46 °FOvercast.9 mph87%29.83 "HgN/A
5:50 am46 °FOvercast.8 mph87%29.80 "HgN/A
5:20 am46 °FOvercast.8 mph87%29.80 "HgN/A
4:50 am46 °FOvercast.8 mph82%29.80 "HgN/A
4:20 am46 °FLow clouds.10 mph87%29.77 "HgN/A
3:50 am46 °FLow clouds.10 mph87%29.77 "HgN/A
3:20 am46 °FLow clouds.13 mph87%29.77 "HgN/A
2:50 am46 °FLow clouds.9 mph93%29.74 "Hg6 mi
2:20 am48 °FLow clouds.9 mph87%29.74 "Hg5 mi
1:50 am48 °FLow clouds.12 mph87%29.74 "Hg4 mi
1:20 am48 °FLow clouds.9 mph87%29.71 "Hg4 mi
12:50 am46 °FOvercast.8 mph93%29.71 "Hg4 mi
12:20 am48 °FOvercast.9 mph87%29.68 "Hg4 mi
11:50 pm
Sun, Mar 3
46 °FPassing clouds.7 mph93%29.68 "Hg4 mi
11:20 pm48 °FPassing clouds.10 mph87%29.65 "Hg4 mi
10:20 pm50 °FClear.12 mph82%29.65 "Hg10 mi
9:50 pm52 °FClear.9 mph72%29.62 "Hg10 mi
8:50 pm52 °FClear.10 mph77%29.62 "Hg10 mi
8:20 pm54 °FClear.6 mph72%29.59 "Hg10 mi
7:50 pm52 °FClear.7 mph72%29.59 "Hg10 mi
6:50 pm55 °FClear.7 mph67%29.56 "Hg10 mi
6:20 pm57 °FClear.7 mph63%29.56 "Hg10 mi
5:50 pm59 °FSunny.8 mph59%29.53 "Hg10 mi
5:20 pm63 °FSunny.7 mph56%29.53 "Hg10 mi
4:50 pm63 °FSunny.8 mph52%29.53 "Hg10 mi
4:20 pm63 °FPassing clouds.9 mph49%29.50 "HgN/A
3:50 pm64 °FPassing clouds.9 mph46%29.50 "HgN/A
3:20 pm63 °FPassing clouds.10 mph49%29.50 "HgN/A
2:50 pm63 °FPassing clouds.10 mph45%29.50 "HgN/A
2:20 pm64 °FPassing clouds.12 mph43%29.50 "HgN/A
Weather by CustomWeather, © 2024

See weather overview